Kumano Maru — JD2155 — position and weather

sailwx.info

Track history (hours):
 
Tides and Currents Weather Stations Pressure Air Temp Water Temp Dewpoint Dewpoint Depression Visibility Wind Speed Wind Dir Waves Ship Positions

Kumano Maru

Last reported at 2017-Oct-13 11:31 UTC. Time now 2017-Oct-20 01:28 UTC.
Position N 34°53' E 139°48'.

Length 65 m; draft 4 m.

MMSI: 431402029.

Date/timePositionNaut miles runAvg speedWind from/ knotsBaromVisibWave heightAir tempDewpointWater temp
2017-Oct-13 11:31N 34°53' E 139°48'011.7
2017-Oct-13 11:30N 34°53' E 139°48'713.3
2017-Oct-13 11:00N 34°58' E 139°43'612.3
2017-Oct-13 10:30N 35°04' E 139°44'612.2
2017-Oct-13 10:00N 35°10' E 139°46'612.1
2017-Oct-13 09:30N 35°16' E 139°46'611.6
2017-Oct-13 09:00N 35°21' E 139°42'611.3
2017-Oct-13 08:30N 35°26' E 139°46'612.1
2017-Oct-13 08:00N 35°30' E 139°52'5 0.2
2017-Oct-12 03:24N 35°32' E 139°57'  
2017-Oct-06 06:35N 34°60' E 139°27'110.8
2017-Oct-06 06:28N 35°00' E 139°29'511.1
2017-Oct-06 06:00N 35°03' E 139°34'612.9
2017-Oct-06 05:30N 35°06' E 139°41'612.4
2017-Oct-06 05:00N 35°11' E 139°45'610.9
2017-Oct-06 04:30N 35°17' E 139°45'611.3
2017-Oct-06 04:00N 35°22' E 139°42'611.0
2017-Oct-06 03:30N 35°27' E 139°41'2 3.8
2017-Oct-06 03:00N 35°29' E 139°40'0 0.0
2017-Oct-06 02:30N 35°29' E 139°40'0 0.0
2017-Oct-06 02:00N 35°29' E 139°40'0 0.0
2017-Oct-06 01:30N 35°29' E 139°40'0 0.0
2017-Oct-06 01:00N 35°29' E 139°40'0 0.0
2017-Oct-06 00:30N 35°29' E 139°40'0 0.0
2017-Oct-06 00:00N 35°29' E 139°40'0 0.0
2017-Oct-05 23:30N 35°29' E 139°40'0 0.0
2017-Oct-05 23:00N 35°29' E 139°40'2 3.3
2017-Oct-05 22:30N 35°27' E 139°41'2 4.9
2017-Oct-05 22:00N 35°28' E 139°44'0 0.1
2017-Oct-05 21:30N 35°28' E 139°44'0 0.0
2017-Oct-05 21:00N 35°28' E 139°44'0 0.0
2017-Oct-05 20:30N 35°28' E 139°44'0 0.1
2017-Oct-05 20:00N 35°28' E 139°43'0 0.0
2017-Oct-05 19:30N 35°28' E 139°43'0 0.0
2017-Oct-05 19:00N 35°28' E 139°43'0 0.1
2017-Oct-05 18:30N 35°28' E 139°44'0 0.0
2017-Oct-05 18:00N 35°28' E 139°44'0 0.0
2017-Oct-05 17:30N 35°28' E 139°44'0 0.0
2017-Oct-05 17:00N 35°28' E 139°44'0 0.0
2017-Oct-05 15:30N 35°28' E 139°43'0 0.0
2017-Oct-05 15:00N 35°28' E 139°43'0 0.0
2017-Oct-05 14:30N 35°28' E 139°43'0 0.0
2017-Oct-05 14:00N 35°28' E 139°43'0 0.0
2017-Oct-05 13:31N 35°28' E 139°43'0 0.0
2017-Oct-05 13:00N 35°28' E 139°43'0 0.0
2017-Oct-05 12:30N 35°28' E 139°43'1 2.8
2017-Oct-05 12:00N 35°27' E 139°45'510.3
2017-Oct-05 11:30N 35°29' E 139°51'5 0.6
2017-Oct-05 03:37N 35°29' E 139°57'211.1
2017-Oct-05 03:26N 35°30' E 139°54'510.9
2017-Oct-05 03:00N 35°29' E 139°48'510.9
2017-Oct-05 02:30N 35°26' E 139°44'4 7.8
2017-Oct-05 02:01N 35°24' E 139°39'1 1.2
2017-Oct-05 01:30N 35°24' E 139°38'0 0.0
2017-Oct-05 01:00N 35°24' E 139°38'0 0.0
2017-Oct-05 00:30N 35°24' E 139°38'0 0.0
2017-Oct-05 00:01N 35°24' E 139°38'0 0.0
2017-Oct-04 23:30N 35°24' E 139°38'0 0.0
2017-Oct-04 23:01N 35°24' E 139°38'2 3.8
2017-Oct-04 22:30N 35°23' E 139°40'1 1.7
2017-Oct-04 22:00N 35°22' E 139°40'0 0.0
2017-Oct-04 21:30N 35°22' E 139°40'0 0.0
2017-Oct-04 21:00N 35°22' E 139°40'0 0.0
2017-Oct-04 20:30N 35°22' E 139°40'0 0.0
2017-Oct-04 20:00N 35°22' E 139°40'0 0.0
2017-Oct-04 19:30N 35°22' E 139°40'0 0.1
2017-Oct-04 19:00N 35°22' E 139°40'0 0.0
2017-Oct-04 18:30N 35°22' E 139°40'0 0.1
2017-Oct-04 18:00N 35°22' E 139°40'0 0.1
2017-Oct-04 17:30N 35°22' E 139°40'1 1.8
2017-Oct-04 17:00N 35°22' E 139°41'612.0
2017-Oct-04 16:30N 35°17' E 139°45'511.0
2017-Oct-04 16:00N 35°11' E 139°46'510.4
2017-Oct-04 15:30N 35°07' E 139°44'510.6
2017-Oct-04 15:00N 35°03' E 139°40'  
Track history (hours):
 
Tides and Currents Weather Stations Pressure Air Temp Water Temp Dewpoint Dewpoint Depression Visibility Wind Speed Wind Dir Waves Ship Positions

Kumano Maru

Last reported at 2017-Oct-13 11:31 UTC. Time now 2017-Oct-20 01:28 UTC.
Position N 34°53' E 139°48'.

Length 65 m; draft 4 m.

MMSI: 431402029.

Date/timePositionNaut miles runAvg speedWind from/ knotsBaromVisibWave heightAir tempDewpointWater temp
2017-Oct-13 11:31N 34°53' E 139°48'011.7
2017-Oct-13 11:30N 34°53' E 139°48'713.3
2017-Oct-13 11:00N 34°58' E 139°43'612.3
2017-Oct-13 10:30N 35°04' E 139°44'612.2
2017-Oct-13 10:00N 35°10' E 139°46'612.1
2017-Oct-13 09:30N 35°16' E 139°46'611.6
2017-Oct-13 09:00N 35°21' E 139°42'611.3
2017-Oct-13 08:30N 35°26' E 139°46'612.1
2017-Oct-13 08:00N 35°30' E 139°52'5 0.2
2017-Oct-12 03:24N 35°32' E 139°57'  
2017-Oct-06 06:35N 34°60' E 139°27'110.8
2017-Oct-06 06:28N 35°00' E 139°29'511.1
2017-Oct-06 06:00N 35°03' E 139°34'612.9
2017-Oct-06 05:30N 35°06' E 139°41'612.4
2017-Oct-06 05:00N 35°11' E 139°45'610.9
2017-Oct-06 04:30N 35°17' E 139°45'611.3
2017-Oct-06 04:00N 35°22' E 139°42'611.0
2017-Oct-06 03:30N 35°27' E 139°41'2 3.8
2017-Oct-06 03:00N 35°29' E 139°40'0 0.0
2017-Oct-06 02:30N 35°29' E 139°40'0 0.0
2017-Oct-06 02:00N 35°29' E 139°40'0 0.0
2017-Oct-06 01:30N 35°29' E 139°40'0 0.0
2017-Oct-06 01:00N 35°29' E 139°40'0 0.0
2017-Oct-06 00:30N 35°29' E 139°40'0 0.0
2017-Oct-06 00:00N 35°29' E 139°40'0 0.0
2017-Oct-05 23:30N 35°29' E 139°40'0 0.0
2017-Oct-05 23:00N 35°29' E 139°40'2 3.3
2017-Oct-05 22:30N 35°27' E 139°41'2 4.9
2017-Oct-05 22:00N 35°28' E 139°44'0 0.1
2017-Oct-05 21:30N 35°28' E 139°44'0 0.0
2017-Oct-05 21:00N 35°28' E 139°44'0 0.0
2017-Oct-05 20:30N 35°28' E 139°44'0 0.1
2017-Oct-05 20:00N 35°28' E 139°43'0 0.0
2017-Oct-05 19:30N 35°28' E 139°43'0 0.0
2017-Oct-05 19:00N 35°28' E 139°43'0 0.1
2017-Oct-05 18:30N 35°28' E 139°44'0 0.0
2017-Oct-05 18:00N 35°28' E 139°44'0 0.0
2017-Oct-05 17:30N 35°28' E 139°44'0 0.0
2017-Oct-05 17:00N 35°28' E 139°44'0 0.0
2017-Oct-05 15:30N 35°28' E 139°43'0 0.0
2017-Oct-05 15:00N 35°28' E 139°43'0 0.0
2017-Oct-05 14:30N 35°28' E 139°43'0 0.0
2017-Oct-05 14:00N 35°28' E 139°43'0 0.0
2017-Oct-05 13:31N 35°28' E 139°43'0 0.0
2017-Oct-05 13:00N 35°28' E 139°43'0 0.0
2017-Oct-05 12:30N 35°28' E 139°43'1 2.8
2017-Oct-05 12:00N 35°27' E 139°45'510.3
2017-Oct-05 11:30N 35°29' E 139°51'5 0.6
2017-Oct-05 03:37N 35°29' E 139°57'211.1
2017-Oct-05 03:26N 35°30' E 139°54'510.9
2017-Oct-05 03:00N 35°29' E 139°48'510.9
2017-Oct-05 02:30N 35°26' E 139°44'4 7.8
2017-Oct-05 02:01N 35°24' E 139°39'1 1.2
2017-Oct-05 01:30N 35°24' E 139°38'0 0.0
2017-Oct-05 01:00N 35°24' E 139°38'0 0.0
2017-Oct-05 00:30N 35°24' E 139°38'0 0.0
2017-Oct-05 00:01N 35°24' E 139°38'0 0.0
2017-Oct-04 23:30N 35°24' E 139°38'0 0.0
2017-Oct-04 23:01N 35°24' E 139°38'2 3.8
2017-Oct-04 22:30N 35°23' E 139°40'1 1.7
2017-Oct-04 22:00N 35°22' E 139°40'0 0.0
2017-Oct-04 21:30N 35°22' E 139°40'0 0.0
2017-Oct-04 21:00N 35°22' E 139°40'0 0.0
2017-Oct-04 20:30N 35°22' E 139°40'0 0.0
2017-Oct-04 20:00N 35°22' E 139°40'0 0.0
2017-Oct-04 19:30N 35°22' E 139°40'0 0.1
2017-Oct-04 19:00N 35°22' E 139°40'0 0.0
2017-Oct-04 18:30N 35°22' E 139°40'0 0.1
2017-Oct-04 18:00N 35°22' E 139°40'0 0.1
2017-Oct-04 17:30N 35°22' E 139°40'1 1.8
2017-Oct-04 17:00N 35°22' E 139°41'612.0
2017-Oct-04 16:30N 35°17' E 139°45'511.0
2017-Oct-04 16:00N 35°11' E 139°46'510.4
2017-Oct-04 15:30N 35°07' E 139°44'510.6
2017-Oct-04 15:00N 35°03' E 139°40'  

Dump ship's entire track history